Main page
METAR-TAF:

METAR-TAF

Airports :

Ljubljana, Slovenia

Ljubljana Jože Pučnik Airport

latitude: 46-13N, longitude: 014-29E, elevation: 385 m

Current weather observation

The report was made 14 minutes ago, at 09:30 UTC
Wind 3 kt from the East/Southeast, varying between North/Northeast and Southeast
Temperature 2°C
Humidity 75%
Pressure 1023 hPa
Visibility 10 km or more
Few clouds at a height of 6000 ft

METAR: LJLJ 230930Z 11003KT 020V140 9999 FEW060 02/M02 Q1023 NOSIG

Time: 10:44 (09:44 UTC)

Forecast

The report was made 1 hour and 44 minutes ago, at 08:00 UTC
Forecast valid from 23 at 09 UTC to 24 at 09 UTC
Wind 3 kt from the West/Northwest
Visibility 10 km or more
Few clouds at a height of 6000 ft
Temporary
from 23 at 11 UTC to 23 at 15 UTC
Wind 5 kt from the East/Southeast

TAF: LJLJ 230800Z 2309/2409 29003KT 9999 FEW060 TEMPO 2311/2315 12005KT

Weather observations and forecasts of more than 4000 airports (METAR and TAF reports).

The available stations are represented by yellow and red dots on the map.

Hover mouse over dot to see the name of the station.

Then click to see weather observations and forecasts.

To change the map : click on the green buttons with a black cross to zoom in, on the green button with a dash to zoom out, or on the green arrows for adjacent maps.


METAR-TAF: